sensor_id;sensor_type;location;lat;lon;timestamp;pressure;altitude;pressure_sealevel;temperature;humidity
78625;BME280;67944;0.000;0.000;2023-06-26T00:02:02;100517.31;;;29.72;33.12
78625;BME280;67944;0.000;0.000;2023-06-26T00:04:27;100521.88;;;29.72;33.22
78625;BME280;67944;0.000;0.000;2023-06-26T00:06:52;100520.25;;;29.71;33.77
78625;BME280;67944;0.000;0.000;2023-06-26T00:09:18;100516.16;;;29.68;33.19
78625;BME280;67944;0.000;0.000;2023-06-26T00:11:43;100517.22;;;29.67;33.06
78625;BME280;67944;0.000;0.000;2023-06-26T00:14:09;100522.03;;;29.65;33.66
78625;BME280;67944;0.000;0.000;2023-06-26T00:16:35;100517.72;;;29.64;33.58
78625;BME280;67944;0.000;0.000;2023-06-26T00:19:01;100509.09;;;29.62;33.24
78625;BME280;67944;0.000;0.000;2023-06-26T00:21:26;100516.34;;;29.61;33.54
78625;BME280;67944;0.000;0.000;2023-06-26T00:23:52;100510.16;;;29.61;33.10
78625;BME280;67944;0.000;0.000;2023-06-26T00:26:18;100517.63;;;29.59;33.87
78625;BME280;67944;0.000;0.000;2023-06-26T00:28:43;100516.00;;;29.58;33.38
78625;BME280;67944;0.000;0.000;2023-06-26T00:31:09;100518.91;;;29.56;33.29
78625;BME280;67944;0.000;0.000;2023-06-26T00:33:34;100517.28;;;29.55;33.54
78625;BME280;67944;0.000;0.000;2023-06-26T00:35:59;100515.06;;;29.52;33.82
78625;BME280;67944;0.000;0.000;2023-06-26T00:38:25;100508.88;;;29.52;33.33
78625;BME280;67944;0.000;0.000;2023-06-26T00:40:50;100514.47;;;29.50;33.71
78625;BME280;67944;0.000;0.000;2023-06-26T00:43:16;100509.34;;;29.49;33.64
78625;BME280;67944;0.000;0.000;2023-06-26T00:45:41;100508.78;;;29.47;33.35
78625;BME280;67944;0.000;0.000;2023-06-26T00:48:09;100509.59;;;29.47;33.82
78625;BME280;67944;0.000;0.000;2023-06-26T00:50:37;100506.59;;;29.44;33.85
78625;BME280;67944;0.000;0.000;2023-06-26T00:53:03;100508.47;;;29.43;33.54
78625;BME280;67944;0.000;0.000;2023-06-26T00:55:29;100506.00;;;29.42;33.48
78625;BME280;67944;0.000;0.000;2023-06-26T00:57:55;100504.38;;;29.41;33.62
78625;BME280;67944;0.000;0.000;2023-06-26T01:00:21;100493.03;;;29.39;33.59
78625;BME280;67944;0.000;0.000;2023-06-26T01:02:46;100499.47;;;29.38;33.63
78625;BME280;67944;0.000;0.000;2023-06-26T01:05:13;100494.31;;;29.36;33.57
78625;BME280;67944;0.000;0.000;2023-06-26T01:07:49;100496.44;;;29.34;33.82
78625;BME280;67944;0.000;0.000;2023-06-26T01:10:15;100500.41;;;29.31;33.58
78625;BME280;67944;0.000;0.000;2023-06-26T01:12:41;100491.19;;;29.27;34.04
78625;BME280;67944;0.000;0.000;2023-06-26T01:15:07;100483.59;;;29.24;33.72
78625;BME280;67944;0.000;0.000;2023-06-26T01:17:33;100485.41;;;29.19;33.72
78625;BME280;67944;0.000;0.000;2023-06-26T01:20:01;100485.63;;;29.17;33.67
78625;BME280;67944;0.000;0.000;2023-06-26T01:22:38;100487.97;;;29.14;33.66
78625;BME280;67944;0.000;0.000;2023-06-26T01:27:48;100480.28;;;29.06;33.92
78625;BME280;67944;0.000;0.000;2023-06-26T01:30:16;100478.88;;;29.03;33.98
78625;BME280;67944;0.000;0.000;2023-06-26T01:32:43;100475.88;;;28.99;33.92
78625;BME280;67944;0.000;0.000;2023-06-26T01:35:11;100476.34;;;28.96;33.84
78625;BME280;67944;0.000;0.000;2023-06-26T01:37:36;100476.56;;;28.95;33.46
78625;BME280;67944;0.000;0.000;2023-06-26T01:40:02;100474.59;;;28.90;33.85
78625;BME280;67944;0.000;0.000;2023-06-26T01:42:31;100466.19;;;28.87;33.60
78625;BME280;67944;0.000;0.000;2023-06-26T01:45:03;100466.44;;;28.85;33.99
78625;BME280;67944;0.000;0.000;2023-06-26T01:47:36;100463.41;;;28.82;33.90
78625;BME280;67944;0.000;0.000;2023-06-26T01:50:11;100464.69;;;28.79;33.99
78625;BME280;67944;0.000;0.000;2023-06-26T01:52:42;100472.94;;;28.78;33.99
78625;BME280;67944;0.000;0.000;2023-06-26T01:55:20;100467.25;;;28.74;33.81
78625;BME280;67944;0.000;0.000;2023-06-26T01:57:47;100469.34;;;28.72;34.30
78625;BME280;67944;0.000;0.000;2023-06-26T02:00:18;100464.44;;;28.69;34.09
78625;BME280;67944;0.000;0.000;2023-06-26T02:02:44;100463.84;;;28.67;33.95
78625;BME280;67944;0.000;0.000;2023-06-26T02:05:11;100459.78;;;28.64;34.04
78625;BME280;67944;0.000;0.000;2023-06-26T02:07:36;100467.22;;;28.62;34.07
78625;BME280;67944;0.000;0.000;2023-06-26T02:10:02;100460.47;;;28.60;34.35
78625;BME280;67944;0.000;0.000;2023-06-26T02:12:28;100464.47;;;28.57;34.13
78625;BME280;67944;0.000;0.000;2023-06-26T02:14:53;100457.69;;;28.55;34.20
78625;BME280;67944;0.000;0.000;2023-06-26T02:17:19;100468.88;;;28.52;34.11
78625;BME280;67944;0.000;0.000;2023-06-26T02:19:44;100469.34;;;28.49;34.19
78625;BME280;67944;0.000;0.000;2023-06-26T02:22:13;100471.44;;;28.47;34.05
78625;BME280;67944;0.000;0.000;2023-06-26T02:24:39;100470.84;;;28.45;34.79
78625;BME280;67944;0.000;0.000;2023-06-26T02:27:05;100472.13;;;28.42;34.23
78625;BME280;67944;0.000;0.000;2023-06-26T02:29:31;100469.91;;;28.39;34.11
78625;BME280;67944;0.000;0.000;2023-06-26T02:31:56;100475.50;;;28.38;34.26
78625;BME280;67944;0.000;0.000;2023-06-26T02:34:22;100483.78;;;28.36;34.19
78625;BME280;67944;0.000;0.000;2023-06-26T02:36:47;100481.56;;;28.33;34.14
78625;BME280;67944;0.000;0.000;2023-06-26T02:39:12;100474.56;;;28.32;34.28
78625;BME280;67944;0.000;0.000;2023-06-26T02:41:39;100482.25;;;28.28;34.16
78625;BME280;67944;0.000;0.000;2023-06-26T02:44:04;100476.31;;;28.26;34.38
78625;BME280;67944;0.000;0.000;2023-06-26T02:46:30;100477.34;;;28.25;34.45
78625;BME280;67944;0.000;0.000;2023-06-26T02:48:56;100476.16;;;28.21;34.38
78625;BME280;67944;0.000;0.000;2023-06-26T02:51:21;100479.06;;;28.20;34.27
78625;BME280;67944;0.000;0.000;2023-06-26T02:53:47;100473.91;;;28.18;34.19
78625;BME280;67944;0.000;0.000;2023-06-26T02:56:12;100476.00;;;28.16;34.17
78625;BME280;67944;0.000;0.000;2023-06-26T02:58:38;100486.16;;;28.14;34.31
78625;BME280;67944;0.000;0.000;2023-06-26T03:01:03;100485.56;;;28.12;34.46
78625;BME280;67944;0.000;0.000;2023-06-26T03:03:29;100478.81;;;28.10;34.43
78625;BME280;67944;0.000;0.000;2023-06-26T03:05:54;100485.22;;;28.09;34.37
78625;BME280;67944;0.000;0.000;2023-06-26T03:08:19;100480.31;;;28.06;34.62
78625;BME280;67944;0.000;0.000;2023-06-26T03:10:45;100489.38;;;28.05;34.21
78625;BME280;67944;0.000;0.000;2023-06-26T03:13:10;100485.31;;;28.02;34.73
78625;BME280;67944;0.000;0.000;2023-06-26T03:15:36;100489.03;;;28.01;34.24
78625;BME280;67944;0.000;0.000;2023-06-26T03:18:01;100485.75;;;27.99;34.21
78625;BME280;67944;0.000;0.000;2023-06-26T03:20:27;100491.56;;;27.96;34.61
78625;BME280;67944;0.000;0.000;2023-06-26T03:22:52;100491.22;;;27.92;34.29
78625;BME280;67944;0.000;0.000;2023-06-26T03:25:18;100495.03;;;27.85;34.54
78625;BME280;67944;0.000;0.000;2023-06-26T03:27:44;100491.03;;;27.76;34.21
78625;BME280;67944;0.000;0.000;2023-06-26T03:30:10;100501.84;;;27.69;34.18
78625;BME280;67944;0.000;0.000;2023-06-26T03:32:36;100495.75;;;27.62;34.34
78625;BME280;67944;0.000;0.000;2023-06-26T03:35:01;100497.88;;;27.53;34.23
78625;BME280;67944;0.000;0.000;2023-06-26T03:37:28;100490.19;;;27.45;34.61
78625;BME280;67944;0.000;0.000;2023-06-26T03:39:54;100489.44;;;27.38;34.58
78625;BME280;67944;0.000;0.000;2023-06-26T03:42:19;100493.00;;;27.32;34.70
78625;BME280;67944;0.000;0.000;2023-06-26T03:44:45;100493.09;;;27.25;34.86
78625;BME280;67944;0.000;0.000;2023-06-26T03:47:10;100489.22;;;27.21;34.95
78625;BME280;67944;0.000;0.000;2023-06-26T03:49:36;100489.91;;;27.17;35.12
78625;BME280;67944;0.000;0.000;2023-06-26T03:52:01;100488.91;;;27.11;34.71
78625;BME280;67944;0.000;0.000;2023-06-26T03:54:27;100487.97;;;27.06;35.14
78625;BME280;67944;0.000;0.000;2023-06-26T03:56:52;100489.47;;;27.02;35.54
78625;BME280;67944;0.000;0.000;2023-06-26T03:59:18;100492.78;;;26.97;35.56
78625;BME280;67944;0.000;0.000;2023-06-26T04:01:43;100499.78;;;26.91;35.78
78625;BME280;67944;0.000;0.000;2023-06-26T04:04:08;100497.78;;;26.87;36.04
78625;BME280;67944;0.000;0.000;2023-06-26T04:06:34;100490.44;;;26.82;36.20
78625;BME280;67944;0.000;0.000;2023-06-26T04:08:59;100494.38;;;26.80;35.86
78625;BME280;67944;0.000;0.000;2023-06-26T04:11:25;100500.16;;;26.77;36.31
78625;BME280;67944;0.000;0.000;2023-06-26T04:13:51;100500.38;;;26.75;36.00
78625;BME280;67944;0.000;0.000;2023-06-26T04:16:17;100498.75;;;26.74;36.49
78625;BME280;67944;0.000;0.000;2023-06-26T04:18:42;100499.34;;;26.76;36.50
78625;BME280;67944;0.000;0.000;2023-06-26T04:21:12;100494.81;;;27.02;36.44
78625;BME280;67944;0.000;0.000;2023-06-26T04:23:39;100506.81;;;27.47;36.72
78625;BME280;67944;0.000;0.000;2023-06-26T04:26:06;100505.75;;;27.85;36.49
78625;BME280;67944;0.000;0.000;2023-06-26T04:28:36;100508.09;;;27.93;35.78
78625;BME280;67944;0.000;0.000;2023-06-26T04:31:01;100511.31;;;27.83;35.76
78625;BME280;67944;0.000;0.000;2023-06-26T04:33:29;100498.13;;;27.70;35.78
78625;BME280;67944;0.000;0.000;2023-06-26T04:35:54;100502.78;;;27.56;35.94
78625;BME280;67944;0.000;0.000;2023-06-26T04:38:20;100495.53;;;27.45;36.30
78625;BME280;67944;0.000;0.000;2023-06-26T04:40:48;100503.25;;;27.35;36.62
78625;BME280;67944;0.000;0.000;2023-06-26T04:43:14;100498.44;;;27.25;36.41
78625;BME280;67944;0.000;0.000;2023-06-26T04:45:39;100500.38;;;27.18;36.34
78625;BME280;67944;0.000;0.000;2023-06-26T04:48:05;100493.44;;;27.11;36.49
78625;BME280;67944;0.000;0.000;2023-06-26T04:50:31;100494.16;;;27.06;36.61
78625;BME280;67944;0.000;0.000;2023-06-26T04:52:57;100493.75;;;27.03;36.61
78625;BME280;67944;0.000;0.000;2023-06-26T04:55:24;100492.56;;;26.99;37.48
78625;BME280;67944;0.000;0.000;2023-06-26T04:57:50;100502.06;;;26.94;37.16
78625;BME280;67944;0.000;0.000;2023-06-26T05:00:15;100494.44;;;26.91;37.38
78625;BME280;67944;0.000;0.000;2023-06-26T05:02:41;100498.16;;;26.90;37.83
78625;BME280;67944;0.000;0.000;2023-06-26T05:05:07;100498.16;;;26.90;37.68
78625;BME280;67944;0.000;0.000;2023-06-26T05:07:33;100496.53;;;26.89;37.54
78625;BME280;67944;0.000;0.000;2023-06-26T05:09:58;100492.81;;;26.90;37.97
78625;BME280;67944;0.000;0.000;2023-06-26T05:12:24;100489.94;;;26.92;37.79
78625;BME280;67944;0.000;0.000;2023-06-26T05:14:49;100484.38;;;26.93;37.71
78625;BME280;67944;0.000;0.000;2023-06-26T05:17:15;100487.66;;;26.95;38.07
78625;BME280;67944;0.000;0.000;2023-06-26T05:19:40;100485.81;;;26.96;38.36
78625;BME280;67944;0.000;0.000;2023-06-26T05:22:06;100490.94;;;26.98;38.44
78625;BME280;67944;0.000;0.000;2023-06-26T05:24:35;100495.03;;;27.00;38.63
78625;BME280;67944;0.000;0.000;2023-06-26T05:27:01;100491.53;;;27.00;38.29
78625;BME280;67944;0.000;0.000;2023-06-26T05:29:29;100491.91;;;27.03;38.18
78625;BME280;67944;0.000;0.000;2023-06-26T05:31:55;100501.34;;;27.06;38.69
78625;BME280;67944;0.000;0.000;2023-06-26T05:34:23;100499.25;;;27.08;38.26
78625;BME280;67944;0.000;0.000;2023-06-26T05:36:57;100497.16;;;27.10;38.38
78625;BME280;67944;0.000;0.000;2023-06-26T05:39:23;100491.38;;;27.13;38.59
78625;BME280;67944;0.000;0.000;2023-06-26T05:41:49;100495.69;;;27.14;38.70
78625;BME280;67944;0.000;0.000;2023-06-26T05:44:15;100504.31;;;27.16;38.79
78625;BME280;67944;0.000;0.000;2023-06-26T05:46:40;100500.59;;;27.17;38.55
78625;BME280;67944;0.000;0.000;2023-06-26T05:49:06;100497.09;;;27.16;38.65
78625;BME280;67944;0.000;0.000;2023-06-26T05:51:32;100496.88;;;27.18;38.56
78625;BME280;67944;0.000;0.000;2023-06-26T05:53:57;100502.81;;;27.20;38.49
78625;BME280;67944;0.000;0.000;2023-06-26T05:56:23;100499.13;;;27.21;38.76
78625;BME280;67944;0.000;0.000;2023-06-26T05:58:49;100497.25;;;27.21;38.41
78625;BME280;67944;0.000;0.000;2023-06-26T06:01:15;100490.88;;;27.22;38.51
78625;BME280;67944;0.000;0.000;2023-06-26T06:03:41;100492.50;;;27.23;38.59
78625;BME280;67944;0.000;0.000;2023-06-26T06:06:06;100488.56;;;27.26;38.62
78625;BME280;67944;0.000;0.000;2023-06-26T06:08:32;100501.47;;;27.29;38.44
78625;BME280;67944;0.000;0.000;2023-06-26T06:10:59;100512.53;;;27.33;38.62
78625;BME280;67944;0.000;0.000;2023-06-26T06:13:25;100502.22;;;27.36;38.47
78625;BME280;67944;0.000;0.000;2023-06-26T06:15:50;100502.59;;;27.40;38.31
78625;BME280;67944;0.000;0.000;2023-06-26T06:18:16;100507.28;;;27.44;38.46
78625;BME280;67944;0.000;0.000;2023-06-26T06:20:41;100509.50;;;27.47;38.66
78625;BME280;67944;0.000;0.000;2023-06-26T06:23:07;100509.03;;;27.50;38.31
78625;BME280;67944;0.000;0.000;2023-06-26T06:25:32;100507.16;;;27.51;38.19
78625;BME280;67944;0.000;0.000;2023-06-26T06:27:57;100505.91;;;27.53;38.17
78625;BME280;67944;0.000;0.000;2023-06-26T06:30:23;100501.78;;;27.57;38.44
78625;BME280;67944;0.000;0.000;2023-06-26T06:32:48;100504.00;;;27.60;38.40
78625;BME280;67944;0.000;0.000;2023-06-26T06:35:20;100503.78;;;27.62;37.97
78625;BME280;67944;0.000;0.000;2023-06-26T06:37:45;100492.03;;;27.63;38.01
78625;BME280;67944;0.000;0.000;2023-06-26T06:40:11;100495.91;;;27.67;37.72
78625;BME280;67944;0.000;0.000;2023-06-26T06:42:37;100499.75;;;27.71;37.76
78625;BME280;67944;0.000;0.000;2023-06-26T06:45:04;100502.56;;;27.76;37.73
78625;BME280;67944;0.000;0.000;2023-06-26T06:47:31;100491.41;;;27.79;37.78
78625;BME280;67944;0.000;0.000;2023-06-26T06:49:56;100493.63;;;27.82;37.62
78625;BME280;67944;0.000;0.000;2023-06-26T06:52:22;100488.41;;;27.87;37.62
78625;BME280;67944;0.000;0.000;2023-06-26T06:54:56;100484.25;;;27.91;37.61
78625;BME280;67944;0.000;0.000;2023-06-26T06:57:24;100483.31;;;27.97;37.36
78625;BME280;67944;0.000;0.000;2023-06-26T06:59:50;100484.47;;;28.02;37.47
78625;BME280;67944;0.000;0.000;2023-06-26T07:02:18;100489.16;;;28.06;37.27
78625;BME280;67944;0.000;0.000;2023-06-26T07:04:44;100492.19;;;28.10;37.50
78625;BME280;67944;0.000;0.000;2023-06-26T07:07:09;100490.69;;;28.14;37.37
78625;BME280;67944;0.000;0.000;2023-06-26T07:09:36;100495.81;;;28.15;37.06
78625;BME280;67944;0.000;0.000;2023-06-26T07:12:01;100484.63;;;28.18;37.11
78625;BME280;67944;0.000;0.000;2023-06-26T07:14:28;100489.34;;;28.23;37.20
78625;BME280;67944;0.000;0.000;2023-06-26T07:16:53;100477.34;;;28.25;36.88
78625;BME280;67944;0.000;0.000;2023-06-26T07:19:18;100486.56;;;28.29;37.06
78625;BME280;67944;0.000;0.000;2023-06-26T07:21:44;100461.41;;;28.30;36.65
78625;BME280;67944;0.000;0.000;2023-06-26T07:24:11;100478.66;;;28.35;36.64
78625;BME280;67944;0.000;0.000;2023-06-26T07:26:37;100467.44;;;28.38;36.46
78625;BME280;67944;0.000;0.000;2023-06-26T07:29:03;100469.44;;;28.42;36.82
78625;BME280;67944;0.000;0.000;2023-06-26T07:31:29;100469.78;;;28.46;36.62
78625;BME280;67944;0.000;0.000;2023-06-26T07:33:54;100469.34;;;28.49;36.26
78625;BME280;67944;0.000;0.000;2023-06-26T07:36:20;100468.88;;;28.52;36.36
78625;BME280;67944;0.000;0.000;2023-06-26T07:38:45;100470.88;;;28.56;36.47
78625;BME280;67944;0.000;0.000;2023-06-26T07:41:11;100471.19;;;28.60;36.30
78625;BME280;67944;0.000;0.000;2023-06-26T07:43:36;100482.03;;;28.65;36.37
78625;BME280;67944;0.000;0.000;2023-06-26T07:46:02;100484.03;;;28.70;36.54
78625;BME280;67944;0.000;0.000;2023-06-26T07:48:27;100483.31;;;28.74;36.13
78625;BME280;67944;0.000;0.000;2023-06-26T07:50:53;100474.00;;;28.77;36.37
78625;BME280;67944;0.000;0.000;2023-06-26T07:53:19;100479.47;;;28.82;36.12
78625;BME280;67944;0.000;0.000;2023-06-26T07:55:44;100486.00;;;28.86;36.11
78625;BME280;67944;0.000;0.000;2023-06-26T07:58:10;100482.63;;;28.90;36.30
78625;BME280;67944;0.000;0.000;2023-06-26T08:00:36;100483.81;;;28.94;35.88
78625;BME280;67944;0.000;0.000;2023-06-26T08:03:02;100486.59;;;28.99;35.77
78625;BME280;67944;0.000;0.000;2023-06-26T08:05:28;100489.59;;;29.03;36.15
78625;BME280;67944;0.000;0.000;2023-06-26T08:07:54;100489.13;;;29.06;36.04
78625;BME280;67944;0.000;0.000;2023-06-26T08:10:19;100492.97;;;29.10;35.51
78625;BME280;67944;0.000;0.000;2023-06-26T08:12:45;100493.31;;;29.14;35.00
78625;BME280;67944;0.000;0.000;2023-06-26T08:15:11;100483.19;;;29.16;35.51
78625;BME280;67944;0.000;0.000;2023-06-26T08:17:37;100488.91;;;29.19;34.97
78625;BME280;67944;0.000;0.000;2023-06-26T08:20:04;100495.16;;;29.25;34.73
78625;BME280;67944;0.000;0.000;2023-06-26T08:22:30;100491.19;;;29.27;35.23
78625;BME280;67944;0.000;0.000;2023-06-26T08:24:56;100502.84;;;29.33;35.05
78625;BME280;67944;0.000;0.000;2023-06-26T08:27:22;100503.78;;;29.39;34.79
78625;BME280;67944;0.000;0.000;2023-06-26T08:29:47;100502.28;;;29.43;34.74
78625;BME280;67944;0.000;0.000;2023-06-26T08:32:13;100491.63;;;29.48;34.30
78625;BME280;67944;0.000;0.000;2023-06-26T08:34:38;100497.34;;;29.51;34.00
78625;BME280;67944;0.000;0.000;2023-06-26T08:37:04;100510.84;;;29.56;34.11
78625;BME280;67944;0.000;0.000;2023-06-26T08:39:29;100499.41;;;29.61;34.12
78625;BME280;67944;0.000;0.000;2023-06-26T08:41:55;100498.94;;;29.64;34.06
78625;BME280;67944;0.000;0.000;2023-06-26T08:44:21;100506.25;;;29.68;33.62
78625;BME280;67944;0.000;0.000;2023-06-26T08:46:50;100514.41;;;29.74;33.87
78625;BME280;67944;0.000;0.000;2023-06-26T08:49:29;100506.94;;;29.76;33.46
78625;BME280;67944;0.000;0.000;2023-06-26T08:52:13;100505.63;;;29.78;33.38
78625;BME280;67944;0.000;0.000;2023-06-26T08:54:46;100514.03;;;29.82;33.96
78625;BME280;67944;0.000;0.000;2023-06-26T08:57:17;100511.69;;;29.85;33.08
78625;BME280;67944;0.000;0.000;2023-06-26T08:59:44;100519.00;;;29.90;33.36
78625;BME280;67944;0.000;0.000;2023-06-26T09:02:11;100518.28;;;29.94;33.11
78625;BME280;67944;0.000;0.000;2023-06-26T09:04:36;100512.22;;;29.99;33.47
78625;BME280;67944;0.000;0.000;2023-06-26T09:07:02;100515.25;;;30.03;33.15
78625;BME280;67944;0.000;0.000;2023-06-26T09:09:28;100505.88;;;30.05;33.19
78625;BME280;67944;0.000;0.000;2023-06-26T09:11:53;100510.78;;;30.08;33.93
78625;BME280;67944;0.000;0.000;2023-06-26T09:14:21;100504.91;;;30.11;33.70
78625;BME280;67944;0.000;0.000;2023-06-26T09:16:46;100507.09;;;30.14;33.49
78625;BME280;67944;0.000;0.000;2023-06-26T09:19:12;100514.69;;;30.17;33.69
78625;BME280;67944;0.000;0.000;2023-06-26T09:21:42;100508.81;;;30.20;33.47
78625;BME280;67944;0.000;0.000;2023-06-26T09:24:09;100506.72;;;30.22;33.59
78625;BME280;67944;0.000;0.000;2023-06-26T09:26:39;100508.91;;;30.25;33.91
78625;BME280;67944;0.000;0.000;2023-06-26T09:29:06;100510.06;;;30.29;33.55
78625;BME280;67944;0.000;0.000;2023-06-26T09:31:32;100509.56;;;30.32;33.37
78625;BME280;67944;0.000;0.000;2023-06-26T09:33:59;100509.66;;;30.38;32.94
78625;BME280;67944;0.000;0.000;2023-06-26T09:36:28;100510.78;;;30.42;33.13
78625;BME280;67944;0.000;0.000;2023-06-26T09:38:54;100520.81;;;30.46;33.26
78625;BME280;67944;0.000;0.000;2023-06-26T09:41:20;100523.84;;;30.50;33.58
78625;BME280;67944;0.000;0.000;2023-06-26T09:43:50;100513.13;;;30.55;33.37
78625;BME280;67944;0.000;0.000;2023-06-26T09:46:27;100524.00;;;30.60;32.79
78625;BME280;67944;0.000;0.000;2023-06-26T09:49:02;100518.13;;;30.63;33.25
78625;BME280;67944;0.000;0.000;2023-06-26T09:51:33;100525.72;;;30.66;32.81
78625;BME280;67944;0.000;0.000;2023-06-26T09:54:00;100522.53;;;30.69;33.44
78625;BME280;67944;0.000;0.000;2023-06-26T09:56:27;100521.81;;;30.74;32.62
78625;BME280;67944;0.000;0.000;2023-06-26T09:58:55;100524.56;;;30.79;32.47
78625;BME280;67944;0.000;0.000;2023-06-26T10:01:22;100531.88;;;30.83;33.12
78625;BME280;67944;0.000;0.000;2023-06-26T10:03:48;100520.41;;;30.88;32.51
78625;BME280;67944;0.000;0.000;2023-06-26T10:06:19;100524.47;;;30.90;32.30
78625;BME280;67944;0.000;0.000;2023-06-26T10:08:45;100530.16;;;30.94;32.27
78625;BME280;67944;0.000;0.000;2023-06-26T10:11:16;100528.84;;;30.96;32.59
78625;BME280;67944;0.000;0.000;2023-06-26T10:13:43;100533.72;;;30.99;32.36
78625;BME280;67944;0.000;0.000;2023-06-26T10:16:13;100524.59;;;31.00;32.22
78625;BME280;67944;0.000;0.000;2023-06-26T10:18:43;100532.41;;;31.02;32.16
78625;BME280;67944;0.000;0.000;2023-06-26T10:21:12;100526.78;;;31.03;32.04
78625;BME280;67944;0.000;0.000;2023-06-26T10:23:42;100541.06;;;31.04;32.76
78625;BME280;67944;0.000;0.000;2023-06-26T10:26:11;100533.56;;;31.06;32.54
78625;BME280;67944;0.000;0.000;2023-06-26T10:28:38;100540.56;;;31.07;32.85
78625;BME280;67944;0.000;0.000;2023-06-26T10:31:08;100544.88;;;31.08;32.84
78625;BME280;67944;0.000;0.000;2023-06-26T10:33:36;100539.25;;;31.10;32.83
78625;BME280;67944;0.000;0.000;2023-06-26T10:36:19;100537.16;;;31.12;32.18
78625;BME280;67944;0.000;0.000;2023-06-26T10:38:56;100536.09;;;31.13;32.57
78625;BME280;67944;0.000;0.000;2023-06-26T10:41:25;100538.31;;;31.16;32.36
78625;BME280;67944;0.000;0.000;2023-06-26T10:44:06;100531.84;;;31.17;32.34
78625;BME280;67944;0.000;0.000;2023-06-26T10:46:56;100536.72;;;31.20;32.38
78625;BME280;67944;0.000;0.000;2023-06-26T10:49:29;100536.47;;;31.21;32.18
78625;BME280;67944;0.000;0.000;2023-06-26T10:51:55;100540.78;;;31.22;32.20
78625;BME280;67944;0.000;0.000;2023-06-26T10:54:28;100535.97;;;31.24;32.27
78625;BME280;67944;0.000;0.000;2023-06-26T10:56:55;100537.34;;;31.27;32.04
78625;BME280;67944;0.000;0.000;2023-06-26T10:59:25;100536.28;;;31.28;32.05
78625;BME280;67944;0.000;0.000;2023-06-26T11:02:01;100527.47;;;31.32;32.28
78625;BME280;67944;0.000;0.000;2023-06-26T11:10:00;100518.94;;;31.41;31.81
78625;BME280;67944;0.000;0.000;2023-06-26T11:12:44;100515.75;;;31.44;32.23
78625;BME280;67944;0.000;0.000;2023-06-26T11:15:18;100521.47;;;31.47;32.49
78625;BME280;67944;0.000;0.000;2023-06-26T11:17:45;100527.16;;;31.51;32.16
78625;BME280;67944;0.000;0.000;2023-06-26T11:20:13;100512.38;;;31.53;32.02
78625;BME280;67944;0.000;0.000;2023-06-26T11:22:40;100518.91;;;31.57;32.39
78625;BME280;67944;0.000;0.000;2023-06-26T11:25:08;100522.97;;;31.60;32.50
78625;BME280;67944;0.000;0.000;2023-06-26T11:27:41;100516.22;;;31.62;31.67
78625;BME280;67944;0.000;0.000;2023-06-26T11:30:09;100517.63;;;31.65;32.01
78625;BME280;67944;0.000;0.000;2023-06-26T11:32:36;100527.34;;;31.66;31.95
78625;BME280;67944;0.000;0.000;2023-06-26T11:35:03;100532.22;;;31.69;31.69
78625;BME280;67944;0.000;0.000;2023-06-26T11:37:30;100529.84;;;31.73;32.31
78625;BME280;67944;0.000;0.000;2023-06-26T11:39:56;100530.41;;;31.75;32.02
78625;BME280;67944;0.000;0.000;2023-06-26T11:42:22;100521.59;;;31.79;32.15
78625;BME280;67944;0.000;0.000;2023-06-26T11:44:47;100520.28;;;31.82;31.58
78625;BME280;67944;0.000;0.000;2023-06-26T11:47:18;100528.38;;;31.87;32.40
78625;BME280;67944;0.000;0.000;2023-06-26T11:49:48;100520.84;;;31.89;32.38
78625;BME280;67944;0.000;0.000;2023-06-26T11:52:15;100528.44;;;31.92;31.87
78625;BME280;67944;0.000;0.000;2023-06-26T11:54:42;100521.97;;;31.93;32.20
78625;BME280;67944;0.000;0.000;2023-06-26T11:57:08;100532.25;;;31.96;32.39
78625;BME280;67944;0.000;0.000;2023-06-26T11:59:35;100530.94;;;31.98;31.98
78625;BME280;67944;0.000;0.000;2023-06-26T12:02:06;100527.19;;;31.99;31.78
78625;BME280;67944;0.000;0.000;2023-06-26T12:04:33;100531.25;;;32.02;32.02
78625;BME280;67944;0.000;0.000;2023-06-26T12:07:01;100531.00;;;32.03;31.62
78625;BME280;67944;0.000;0.000;2023-06-26T12:09:30;100532.34;;;32.06;31.57
78625;BME280;67944;0.000;0.000;2023-06-26T12:11:56;100526.94;;;32.06;31.41
78625;BME280;67944;0.000;0.000;2023-06-26T12:14:24;100525.63;;;32.09;31.58
78625;BME280;67944;0.000;0.000;2023-06-26T12:16:51;100520.78;;;32.11;31.46
78625;BME280;67944;0.000;0.000;2023-06-26T12:19:17;100514.91;;;32.14;31.18
78625;BME280;67944;0.000;0.000;2023-06-26T12:21:47;100513.56;;;32.16;31.16
78625;BME280;67944;0.000;0.000;2023-06-26T12:24:16;100517.66;;;32.19;30.93
78625;BME280;67944;0.000;0.000;2023-06-26T12:26:43;100524.44;;;32.21;30.99
78625;BME280;67944;0.000;0.000;2023-06-26T12:29:15;100518.53;;;32.24;30.67
78625;BME280;67944;0.000;0.000;2023-06-26T12:31:52;100516.94;;;32.28;30.50
78625;BME280;67944;0.000;0.000;2023-06-26T12:34:20;100514.81;;;32.30;30.52
78625;BME280;67944;0.000;0.000;2023-06-26T12:36:48;100529.41;;;32.34;30.89
78625;BME280;67944;0.000;0.000;2023-06-26T12:39:19;100518.09;;;32.38;30.12
78625;BME280;67944;0.000;0.000;2023-06-26T12:41:46;100519.72;;;32.39;30.04
78625;BME280;67944;0.000;0.000;2023-06-26T12:46:57;100526.78;;;32.45;29.78
78625;BME280;67944;0.000;0.000;2023-06-26T12:51:59;100527.88;;;32.49;29.29
78625;BME280;67944;0.000;0.000;2023-06-26T12:54:25;100517.66;;;32.51;29.22
78625;BME280;67944;0.000;0.000;2023-06-26T12:56:51;100519.84;;;32.54;29.21
78625;BME280;67944;0.000;0.000;2023-06-26T12:59:17;100509.59;;;32.56;29.29
78625;BME280;67944;0.000;0.000;2023-06-26T13:01:42;100519.06;;;32.58;28.95
78625;BME280;67944;0.000;0.000;2023-06-26T13:04:08;100529.59;;;32.60;28.54
78625;BME280;67944;0.000;0.000;2023-06-26T13:06:34;100525.56;;;32.62;28.85
78625;BME280;67944;0.000;0.000;2023-06-26T13:08:59;100532.59;;;32.63;28.31
78625;BME280;67944;0.000;0.000;2023-06-26T13:11:25;100518.84;;;32.65;28.24
78625;BME280;67944;0.000;0.000;2023-06-26T13:13:50;100519.16;;;32.68;28.64